sensor_id;sensor_type;location;lat;lon;timestamp;pressure;altitude;pressure_sealevel;temperature;humidity
23172;BME280;11754;42.664;23.594;2022-09-01T00:01:22;95209.69;;;18.18;81.10
23172;BME280;11754;42.664;23.594;2022-09-01T00:03:51;95223.97;;;18.23;81.14
23172;BME280;11754;42.664;23.594;2022-09-01T00:06:18;95215.00;;;18.18;81.27
23172;BME280;11754;42.664;23.594;2022-09-01T00:08:54;95213.59;;;18.15;81.31
23172;BME280;11754;42.664;23.594;2022-09-01T00:11:21;95186.81;;;18.04;81.41
23172;BME280;11754;42.664;23.594;2022-09-01T00:13:51;95197.03;;;18.07;81.44
23172;BME280;11754;42.664;23.594;2022-09-01T00:16:17;95183.97;;;17.98;81.66
23172;BME280;11754;42.664;23.594;2022-09-01T00:18:45;95193.78;;;18.05;81.62
23172;BME280;11754;42.664;23.594;2022-09-01T00:21:12;95181.16;;;17.93;81.85
23172;BME280;11754;42.664;23.594;2022-09-01T00:23:38;95201.63;;;17.99;81.64
23172;BME280;11754;42.664;23.594;2022-09-01T00:26:04;95207.41;;;17.96;81.76
23172;BME280;11754;42.664;23.594;2022-09-01T00:28:39;95213.16;;;17.93;81.78
23172;BME280;11754;42.664;23.594;2022-09-01T00:31:06;95219.97;;;17.89;82.04
23172;BME280;11754;42.664;23.594;2022-09-01T00:33:33;95213.66;;;17.84;82.19
23172;BME280;11754;42.664;23.594;2022-09-01T00:35:59;95208.16;;;17.79;82.47
23172;BME280;11754;42.664;23.594;2022-09-01T00:38:25;95215.75;;;17.75;82.63
23172;BME280;11754;42.664;23.594;2022-09-01T00:40:50;95205.31;;;17.67;82.72
23172;BME280;11754;42.664;23.594;2022-09-01T00:43:22;95200.22;;;17.65;82.79
23172;BME280;11754;42.664;23.594;2022-09-01T00:45:48;95208.66;;;17.62;82.66
23172;BME280;11754;42.664;23.594;2022-09-01T00:48:17;95212.56;;;17.60;82.86
23172;BME280;11754;42.664;23.594;2022-09-01T00:50:45;95206.91;;;17.49;83.03
23172;BME280;11754;42.664;23.594;2022-09-01T00:53:11;95208.97;;;17.47;83.33
23172;BME280;11754;42.664;23.594;2022-09-01T00:55:37;95206.13;;;17.42;83.21
23172;BME280;11754;42.664;23.594;2022-09-01T00:58:05;95216.81;;;17.42;83.13
23172;BME280;11754;42.664;23.594;2022-09-01T01:00:34;95219.09;;;17.39;83.30
23172;BME280;11754;42.664;23.594;2022-09-01T01:03:08;95217.66;;;17.36;83.25
23172;BME280;11754;42.664;23.594;2022-09-01T01:05:37;95221.34;;;17.35;83.44
23172;BME280;11754;42.664;23.594;2022-09-01T01:08:04;95228.31;;;17.36;83.34
23172;BME280;11754;42.664;23.594;2022-09-01T01:10:35;95227.69;;;17.34;83.47
23172;BME280;11754;42.664;23.594;2022-09-01T01:13:01;95230.81;;;17.31;83.38
23172;BME280;11754;42.664;23.594;2022-09-01T01:15:30;95231.81;;;17.30;83.69
23172;BME280;11754;42.664;23.594;2022-09-01T01:17:55;95220.81;;;17.20;83.93
23172;BME280;11754;42.664;23.594;2022-09-01T01:20:25;95239.66;;;17.25;84.12
23172;BME280;11754;42.664;23.594;2022-09-01T01:25:59;95224.75;;;17.17;83.85
23172;BME280;11754;42.664;23.594;2022-09-01T01:28:34;95242.31;;;17.25;83.58
23172;BME280;11754;42.664;23.594;2022-09-01T01:33:36;95228.38;;;17.23;83.26
23172;BME280;11754;42.664;23.594;2022-09-01T01:36:06;95228.81;;;17.20;83.48
23172;BME280;11754;42.664;23.594;2022-09-01T01:38:32;95226.38;;;17.18;83.61
23172;BME280;11754;42.664;23.594;2022-09-01T01:41:00;95232.75;;;17.17;83.84
23172;BME280;11754;42.664;23.594;2022-09-01T01:43:27;95215.75;;;17.05;83.99
23172;BME280;11754;42.664;23.594;2022-09-01T01:45:54;95245.84;;;17.19;83.97
23172;BME280;11754;42.664;23.594;2022-09-01T01:48:23;95234.59;;;17.17;84.01
23172;BME280;11754;42.664;23.594;2022-09-01T01:50:52;95236.22;;;17.18;83.82
23172;BME280;11754;42.664;23.594;2022-09-01T01:53:20;95232.31;;;17.20;83.50
23172;BME280;11754;42.664;23.594;2022-09-01T01:55:46;95234.59;;;17.17;83.70
23172;BME280;11754;42.664;23.594;2022-09-01T01:58:16;95244.22;;;17.11;83.28
23172;BME280;11754;42.664;23.594;2022-09-01T02:00:44;95247.97;;;17.03;83.23
23172;BME280;11754;42.664;23.594;2022-09-01T02:03:11;95259.88;;;16.94;83.23
23172;BME280;11754;42.664;23.594;2022-09-01T02:05:41;95254.38;;;16.89;83.55
23172;BME280;11754;42.664;23.594;2022-09-01T02:08:09;95245.41;;;16.77;83.64
23172;BME280;11754;42.664;23.594;2022-09-01T02:10:45;95251.94;;;16.81;83.49
23172;BME280;11754;42.664;23.594;2022-09-01T02:13:14;95244.13;;;16.73;83.68
23172;BME280;11754;42.664;23.594;2022-09-01T02:15:49;95249.31;;;16.74;83.55
23172;BME280;11754;42.664;23.594;2022-09-01T02:18:26;95251.75;;;16.76;83.70
23172;BME280;11754;42.664;23.594;2022-09-01T02:20:53;95248.66;;;16.72;83.59
23172;BME280;11754;42.664;23.594;2022-09-01T02:23:21;95251.53;;;16.71;83.56
23172;BME280;11754;42.664;23.594;2022-09-01T02:25:58;95239.69;;;16.60;83.64
23172;BME280;11754;42.664;23.594;2022-09-01T02:28:29;95257.28;;;16.68;83.71
23172;BME280;11754;42.664;23.594;2022-09-01T02:30:56;95251.94;;;16.68;83.88
23172;BME280;11754;42.664;23.594;2022-09-01T02:33:25;95238.00;;;16.66;83.50
23172;BME280;11754;42.664;23.594;2022-09-01T02:35:55;95259.72;;;16.76;83.33
23172;BME280;11754;42.664;23.594;2022-09-01T02:38:22;95256.06;;;16.77;83.13
23172;BME280;11754;42.664;23.594;2022-09-01T02:40:54;95244.13;;;16.73;82.93
23172;BME280;11754;42.664;23.594;2022-09-01T02:43:20;95249.69;;;16.78;82.64
23172;BME280;11754;42.664;23.594;2022-09-01T02:45:48;95252.97;;;16.80;82.51
23172;BME280;11754;42.664;23.594;2022-09-01T02:48:19;95245.81;;;16.80;82.42
23172;BME280;11754;42.664;23.594;2022-09-01T02:50:46;95243.31;;;16.72;82.48
23172;BME280;11754;42.664;23.594;2022-09-01T02:53:13;95246.41;;;16.69;82.46
23172;BME280;11754;42.664;23.594;2022-09-01T02:55:40;95252.34;;;16.71;82.45
23172;BME280;11754;42.664;23.594;2022-09-01T02:58:06;95260.53;;;16.83;82.27
23172;BME280;11754;42.664;23.594;2022-09-01T03:00:38;95237.19;;;16.78;82.43
23172;BME280;11754;42.664;23.594;2022-09-01T03:03:05;95245.16;;;16.92;82.00
23172;BME280;11754;42.664;23.594;2022-09-01T03:05:32;95240.63;;;16.92;81.84
23172;BME280;11754;42.664;23.594;2022-09-01T03:08:05;95250.63;;;17.03;81.91
23172;BME280;11754;42.664;23.594;2022-09-01T03:10:36;95253.88;;;17.05;81.90
23172;BME280;11754;42.664;23.594;2022-09-01T03:13:12;95255.94;;;17.03;81.91
23172;BME280;11754;42.664;23.594;2022-09-01T03:15:38;95250.22;;;17.07;81.50
23172;BME280;11754;42.664;23.594;2022-09-01T03:18:05;95243.66;;;17.02;81.17
23172;BME280;11754;42.664;23.594;2022-09-01T03:20:33;95236.72;;;16.95;80.22
23172;BME280;11754;42.664;23.594;2022-09-01T03:23:03;95242.44;;;16.98;79.13
23172;BME280;11754;42.664;23.594;2022-09-01T03:25:33;95250.09;;;16.88;79.24
23172;BME280;11754;42.664;23.594;2022-09-01T03:27:59;95255.81;;;16.85;79.35
23172;BME280;11754;42.664;23.594;2022-09-01T03:30:27;95255.59;;;16.87;79.62
23172;BME280;11754;42.664;23.594;2022-09-01T03:32:58;95243.97;;;16.81;79.78
23172;BME280;11754;42.664;23.594;2022-09-01T03:35:24;95255.19;;;16.83;79.71
23172;BME280;11754;42.664;23.594;2022-09-01T03:37:51;95260.13;;;16.86;79.79
23172;BME280;11754;42.664;23.594;2022-09-01T03:40:17;95257.63;;;16.91;79.95
23172;BME280;11754;42.664;23.594;2022-09-01T03:42:43;95249.84;;;16.96;79.54
23172;BME280;11754;42.664;23.594;2022-09-01T03:45:10;95250.44;;;16.98;79.33
23172;BME280;11754;42.664;23.594;2022-09-01T03:47:39;95248.44;;;16.87;79.65
23172;BME280;11754;42.664;23.594;2022-09-01T03:50:17;95258.88;;;16.95;79.74
23172;BME280;11754;42.664;23.594;2022-09-01T03:52:57;95252.28;;;16.91;79.67
23172;BME280;11754;42.664;23.594;2022-09-01T03:55:26;95244.94;;;16.93;79.62
23172;BME280;11754;42.664;23.594;2022-09-01T03:57:55;95256.38;;;17.00;79.56
23172;BME280;11754;42.664;23.594;2022-09-01T04:00:23;95249.84;;;16.90;79.29
23172;BME280;11754;42.664;23.594;2022-09-01T04:02:51;95252.09;;;16.99;79.56
23172;BME280;11754;42.664;23.594;2022-09-01T04:05:18;95250.88;;;16.95;79.71
23172;BME280;11754;42.664;23.594;2022-09-01T04:07:52;95236.94;;;16.93;79.78
23172;BME280;11754;42.664;23.594;2022-09-01T04:10:18;95253.28;;;17.03;79.83
23172;BME280;11754;42.664;23.594;2022-09-01T04:12:44;95248.94;;;17.09;79.64
23172;BME280;11754;42.664;23.594;2022-09-01T04:15:12;95251.41;;;17.11;79.49
23172;BME280;11754;42.664;23.594;2022-09-01T04:17:38;95244.06;;;17.06;79.45
23172;BME280;11754;42.664;23.594;2022-09-01T04:20:22;95257.13;;;17.14;79.13
23172;BME280;11754;42.664;23.594;2022-09-01T04:22:48;95242.41;;;17.05;79.19
23172;BME280;11754;42.664;23.594;2022-09-01T04:25:18;95256.31;;;17.14;79.17
23172;BME280;11754;42.664;23.594;2022-09-01T04:27:51;95233.81;;;17.10;79.25
23172;BME280;11754;42.664;23.594;2022-09-01T04:30:22;95255.44;;;17.20;79.14
23172;BME280;11754;42.664;23.594;2022-09-01T04:32:51;95243.56;;;17.22;79.15
23172;BME280;11754;42.664;23.594;2022-09-01T04:35:20;95237.25;;;17.17;79.13
23172;BME280;11754;42.664;23.594;2022-09-01T04:37:52;95242.31;;;17.25;79.28
23172;BME280;11754;42.664;23.594;2022-09-01T04:40:18;95241.50;;;17.24;79.59
23172;BME280;11754;42.664;23.594;2022-09-01T04:42:48;95243.94;;;17.26;79.56
23172;BME280;11754;42.664;23.594;2022-09-01T04:45:13;95241.91;;;17.28;79.52
23172;BME280;11754;42.664;23.594;2022-09-01T04:47:40;95238.97;;;17.36;79.31
23172;BME280;11754;42.664;23.594;2022-09-01T04:50:10;95245.13;;;17.37;79.34
23172;BME280;11754;42.664;23.594;2022-09-01T04:52:42;95239.16;;;17.41;79.17
23172;BME280;11754;42.664;23.594;2022-09-01T04:55:10;95250.38;;;17.50;78.92
23172;BME280;11754;42.664;23.594;2022-09-01T04:57:45;95250.34;;;17.57;78.82
23172;BME280;11754;42.664;23.594;2022-09-01T05:00:20;95248.88;;;17.61;78.81
23172;BME280;11754;42.664;23.594;2022-09-01T05:02:54;95252.09;;;17.69;78.93
23172;BME280;11754;42.664;23.594;2022-09-01T05:05:27;95240.78;;;17.74;78.40
23172;BME280;11754;42.664;23.594;2022-09-01T05:07:53;95244.38;;;17.93;78.33
23172;BME280;11754;42.664;23.594;2022-09-01T05:10:20;95239.00;;;17.99;78.09
23172;BME280;11754;42.664;23.594;2022-09-01T05:12:47;95248.78;;;18.06;77.88
23172;BME280;11754;42.664;23.594;2022-09-01T05:15:14;95237.06;;;18.07;77.51
23172;BME280;11754;42.664;23.594;2022-09-01T05:17:39;95254.44;;;18.16;77.14
23172;BME280;11754;42.664;23.594;2022-09-01T05:20:06;95258.19;;;18.33;76.40
23172;BME280;11754;42.664;23.594;2022-09-01T05:22:32;95250.50;;;18.43;76.23
23172;BME280;11754;42.664;23.594;2022-09-01T05:24:59;95243.31;;;18.62;75.31
23172;BME280;11754;42.664;23.594;2022-09-01T05:27:36;95245.66;;;18.77;75.60
23172;BME280;11754;42.664;23.594;2022-09-01T05:30:04;95233.63;;;18.86;75.61
23172;BME280;11754;42.664;23.594;2022-09-01T05:32:33;95237.09;;;19.05;75.25
23172;BME280;11754;42.664;23.594;2022-09-01T05:35:02;95231.31;;;19.08;74.59
23172;BME280;11754;42.664;23.594;2022-09-01T05:37:35;95247.53;;;19.25;74.37
23172;BME280;11754;42.664;23.594;2022-09-01T05:40:08;95229.41;;;19.27;73.85
23172;BME280;11754;42.664;23.594;2022-09-01T05:57:35;95248.91;;;19.76;72.90
23172;BME280;11754;42.664;23.594;2022-09-01T06:00:07;95242.78;;;19.87;72.70
23172;BME280;11754;42.664;23.594;2022-09-01T06:02:38;95228.25;;;19.95;72.28
23172;BME280;11754;42.664;23.594;2022-09-01T06:05:04;95239.66;;;20.14;72.04
23172;BME280;11754;42.664;23.594;2022-09-01T06:07:30;95230.56;;;20.15;71.78
23172;BME280;11754;42.664;23.594;2022-09-01T06:09:56;95228.72;;;20.15;71.53
23172;BME280;11754;42.664;23.594;2022-09-01T06:12:21;95235.13;;;20.26;71.37
23172;BME280;11754;42.664;23.594;2022-09-01T06:14:51;95230.13;;;20.42;71.08
23172;BME280;11754;42.664;23.594;2022-09-01T06:17:18;95219.53;;;20.47;70.39
23172;BME280;11754;42.664;23.594;2022-09-01T06:19:51;95234.09;;;20.74;69.82
23172;BME280;11754;42.664;23.594;2022-09-01T06:22:19;95230.44;;;20.92;68.33
23172;BME280;11754;42.664;23.594;2022-09-01T06:24:45;95219.47;;;20.94;68.41
23172;BME280;11754;42.664;23.594;2022-09-01T06:27:12;95233.81;;;20.99;68.11
23172;BME280;11754;42.664;23.594;2022-09-01T06:29:43;95229.25;;;21.00;67.96
23172;BME280;11754;42.664;23.594;2022-09-01T06:32:09;95226.19;;;21.08;68.01
23172;BME280;11754;42.664;23.594;2022-09-01T06:34:41;95221.13;;;21.23;67.79
23172;BME280;11754;42.664;23.594;2022-09-01T06:37:09;95207.41;;;21.48;67.33
23172;BME280;11754;42.664;23.594;2022-09-01T06:39:35;95226.41;;;21.75;67.23
23172;BME280;11754;42.664;23.594;2022-09-01T06:42:01;95222.78;;;21.98;66.08
23172;BME280;11754;42.664;23.594;2022-09-01T06:44:27;95224.72;;;22.03;65.89
23172;BME280;11754;42.664;23.594;2022-09-01T06:46:55;95228.19;;;22.15;66.06
23172;BME280;11754;42.664;23.594;2022-09-01T06:49:21;95215.31;;;22.34;64.66
23172;BME280;11754;42.664;23.594;2022-09-01T06:52:00;95206.13;;;22.30;64.93
23172;BME280;11754;42.664;23.594;2022-09-01T06:54:27;95214.78;;;22.54;64.80
23172;BME280;11754;42.664;23.594;2022-09-01T06:56:57;95211.28;;;22.75;63.80
23172;BME280;11754;42.664;23.594;2022-09-01T06:59:27;95196.31;;;22.79;63.60
23172;BME280;11754;42.664;23.594;2022-09-01T07:01:55;95204.25;;;22.91;63.28
23172;BME280;11754;42.664;23.594;2022-09-01T07:04:26;95197.16;;;23.02;62.59
23172;BME280;11754;42.664;23.594;2022-09-01T07:06:53;95206.97;;;23.13;62.44
23172;BME280;11754;42.664;23.594;2022-09-01T07:09:19;95206.03;;;23.02;62.69
23172;BME280;11754;42.664;23.594;2022-09-01T07:11:44;95184.03;;;23.06;62.53
23172;BME280;11754;42.664;23.594;2022-09-01T07:14:10;95204.44;;;23.29;62.12
23172;BME280;11754;42.664;23.594;2022-09-01T07:16:41;95189.84;;;23.19;61.61
23172;BME280;11754;42.664;23.594;2022-09-01T07:19:09;95205.47;;;23.22;62.22
23172;BME280;11754;42.664;23.594;2022-09-01T07:21:40;95195.31;;;23.30;61.81
23172;BME280;11754;42.664;23.594;2022-09-01T07:24:06;95192.81;;;23.50;60.56
23172;BME280;11754;42.664;23.594;2022-09-01T07:26:33;95178.78;;;23.70;60.24
23172;BME280;11754;42.664;23.594;2022-09-01T07:29:00;95185.72;;;23.93;60.28
23172;BME280;11754;42.664;23.594;2022-09-01T07:31:30;95188.53;;;24.08;59.25
23172;BME280;11754;42.664;23.594;2022-09-01T07:33:59;95190.28;;;24.25;58.93
23172;BME280;11754;42.664;23.594;2022-09-01T07:36:25;95185.06;;;24.50;58.75
23172;BME280;11754;42.664;23.594;2022-09-01T07:38:50;95185.72;;;24.73;58.19
23172;BME280;11754;42.664;23.594;2022-09-01T07:41:20;95186.41;;;25.00;57.46
23172;BME280;11754;42.664;23.594;2022-09-01T07:43:45;95185.41;;;25.11;56.08
23172;BME280;11754;42.664;23.594;2022-09-01T07:46:11;95168.56;;;24.99;57.56
23172;BME280;11754;42.664;23.594;2022-09-01T07:48:37;95158.91;;;25.03;56.39
23172;BME280;11754;42.664;23.594;2022-09-01T07:51:03;95183.31;;;25.39;55.55
23172;BME280;11754;42.664;23.594;2022-09-01T07:53:31;95179.56;;;25.71;55.38
23172;BME280;11754;42.664;23.594;2022-09-01T07:56:05;95176.94;;;25.91;55.75
23172;BME280;11754;42.664;23.594;2022-09-01T07:58:34;95177.72;;;26.17;55.63
23172;BME280;11754;42.664;23.594;2022-09-01T08:01:00;95173.66;;;26.45;54.48
23172;BME280;11754;42.664;23.594;2022-09-01T08:03:27;95178.53;;;26.58;52.71
23172;BME280;11754;42.664;23.594;2022-09-01T08:05:53;95176.53;;;26.79;52.04
23172;BME280;11754;42.664;23.594;2022-09-01T08:08:22;95178.09;;;27.06;51.16
23172;BME280;11754;42.664;23.594;2022-09-01T08:10:48;95176.13;;;27.22;50.25
23172;BME280;11754;42.664;23.594;2022-09-01T08:13:15;95180.91;;;27.45;48.80
23172;BME280;11754;42.664;23.594;2022-09-01T08:15:40;95186.19;;;27.66;49.07
23172;BME280;11754;42.664;23.594;2022-09-01T08:18:06;95188.63;;;27.67;49.77
23172;BME280;11754;42.664;23.594;2022-09-01T08:20:33;95186.63;;;27.83;50.61
23172;BME280;11754;42.664;23.594;2022-09-01T08:23:04;95175.16;;;27.96;50.61
23172;BME280;11754;42.664;23.594;2022-09-01T08:25:32;95183.56;;;28.29;49.42
23172;BME280;11754;42.664;23.594;2022-09-01T08:28:00;95177.34;;;28.58;48.79
23172;BME280;11754;42.664;23.594;2022-09-01T08:30:26;95176.03;;;28.79;48.49
23172;BME280;11754;42.664;23.594;2022-09-01T08:32:52;95162.78;;;29.02;47.93
23172;BME280;11754;42.664;23.594;2022-09-01T08:35:18;95176.16;;;29.17;45.47
23172;BME280;11754;42.664;23.594;2022-09-01T08:37:43;95175.00;;;28.75;46.20
23172;BME280;11754;42.664;23.594;2022-09-01T08:40:15;95174.47;;;28.73;47.43
23172;BME280;11754;42.664;23.594;2022-09-01T08:46:00;95166.50;;;29.49;46.53
23172;BME280;11754;42.664;23.594;2022-09-01T08:48:39;95165.91;;;29.89;44.72
23172;BME280;11754;42.664;23.594;2022-09-01T08:53:44;95172.81;;;30.66;42.91
23172;BME280;11754;42.664;23.594;2022-09-01T08:56:11;95163.06;;;31.20;41.87
23172;BME280;11754;42.664;23.594;2022-09-01T08:58:38;95158.09;;;31.50;41.61
23172;BME280;11754;42.664;23.594;2022-09-01T09:01:09;95155.41;;;31.72;40.16
23172;BME280;11754;42.664;23.594;2022-09-01T09:06:22;95143.91;;;32.43;38.79
23172;BME280;11754;42.664;23.594;2022-09-01T09:09:02;95140.78;;;32.98;37.25
23172;BME280;11754;42.664;23.594;2022-09-01T09:14:27;95145.94;;;33.74;36.28
23172;BME280;11754;42.664;23.594;2022-09-01T09:16:57;95127.09;;;34.07;35.75
23172;BME280;11754;42.664;23.594;2022-09-01T09:19:27;95135.03;;;34.64;33.82
23172;BME280;11754;42.664;23.594;2022-09-01T09:21:55;95136.06;;;35.28;33.31
23172;BME280;11754;42.664;23.594;2022-09-01T09:29:52;95117.19;;;37.25;30.52
23172;BME280;11754;42.664;23.594;2022-09-01T09:32:20;95117.16;;;38.31;28.90
23172;BME280;11754;42.664;23.594;2022-09-01T09:34:46;95107.69;;;39.23;27.81
23172;BME280;11754;42.664;23.594;2022-09-01T09:43:01;95102.19;;;43.34;22.65
23172;BME280;11754;42.664;23.594;2022-09-01T09:45:36;95087.28;;;44.76;20.34
23172;BME280;11754;42.664;23.594;2022-09-01T09:48:06;95065.16;;;46.21;18.64
23172;BME280;11754;42.664;23.594;2022-09-01T09:50:39;95085.19;;;47.99;17.79
23172;BME280;11754;42.664;23.594;2022-09-01T09:53:26;95068.88;;;48.82;16.70
23172;BME280;11754;42.664;23.594;2022-09-01T09:56:03;95061.44;;;49.43;16.26
23172;BME280;11754;42.664;23.594;2022-09-01T09:58:38;95058.72;;;51.08;14.72
23172;BME280;11754;42.664;23.594;2022-09-01T10:03:49;95054.41;;;50.87;14.42
23172;BME280;11754;42.664;23.594;2022-09-01T10:06:38;95051.94;;;48.66;16.32
23172;BME280;11754;42.664;23.594;2022-09-01T10:09:16;95039.38;;;48.51;16.73
23172;BME280;11754;42.664;23.594;2022-09-01T10:11:58;95058.16;;;49.48;16.10
23172;BME280;11754;42.664;23.594;2022-09-01T10:14:30;95044.41;;;50.86;15.09
23172;BME280;11754;42.664;23.594;2022-09-01T10:17:02;95031.41;;;52.25;14.21
23172;BME280;11754;42.664;23.594;2022-09-01T10:19:28;95026.59;;;54.56;12.38
23172;BME280;11754;42.664;23.594;2022-09-01T10:21:57;95024.31;;;56.38;11.68
23172;BME280;11754;42.664;23.594;2022-09-01T10:24:31;95023.94;;;56.88;10.85
23172;BME280;11754;42.664;23.594;2022-09-01T10:27:07;95021.53;;;57.82;9.78
23172;BME280;11754;42.664;23.594;2022-09-01T10:32:25;95025.41;;;59.50;8.63
23172;BME280;11754;42.664;23.594;2022-09-01T10:34:51;95009.13;;;59.76;7.91
23172;BME280;11754;42.664;23.594;2022-09-01T10:37:18;95008.63;;;60.04;8.07
23172;BME280;11754;42.664;23.594;2022-09-01T10:42:34;95010.00;;;62.08;7.60
23172;BME280;11754;42.664;23.594;2022-09-01T10:44:59;95000.06;;;62.94;7.01
23172;BME280;11754;42.664;23.594;2022-09-01T10:47:31;94999.63;;;63.42;6.91
23172;BME280;11754;42.664;23.594;2022-09-01T10:50:26;94994.09;;;63.97;6.41
23172;BME280;11754;42.664;23.594;2022-09-01T10:52:57;94978.47;;;64.34;6.64
23172;BME280;11754;42.664;23.594;2022-09-01T10:55:30;94990.22;;;64.85;5.84
23172;BME280;11754;42.664;23.594;2022-09-01T11:00:58;94976.59;;;64.66;5.38
23172;BME280;11754;42.664;23.594;2022-09-01T11:03:36;94953.97;;;63.14;5.67
23172;BME280;11754;42.664;23.594;2022-09-01T11:06:07;94957.97;;;60.88;6.73
23172;BME280;11754;42.664;23.594;2022-09-01T11:11:46;94932.00;;;57.66;8.40
23172;BME280;11754;42.664;23.594;2022-09-01T11:13:56;94930.69;;;56.51;9.08
23172;BME280;11754;42.664;23.594;2022-09-01T11:19:35;94928.78;;;52.90;11.32
23172;BME280;11754;42.664;23.594;2022-09-01T11:22:27;94937.25;;;50.58;12.26
23172;BME280;11754;42.664;23.594;2022-09-01T11:33:19;94931.63;;;49.10;13.41
23172;BME280;11754;42.664;23.594;2022-09-01T11:35:57;94931.34;;;47.79;14.08
23172;BME280;11754;42.664;23.594;2022-09-01T11:38:24;94915.59;;;47.62;14.26
23172;BME280;11754;42.664;23.594;2022-09-01T11:40:55;94921.25;;;48.16;14.05
23172;BME280;11754;42.664;23.594;2022-09-01T11:43:22;94919.38;;;47.79;14.10
23172;BME280;11754;42.664;23.594;2022-09-01T11:46:14;94920.06;;;46.84;15.53
23172;BME280;11754;42.664;23.594;2022-09-01T11:48:46;94910.88;;;45.83;15.32
23172;BME280;11754;42.664;23.594;2022-09-01T11:51:12;94920.75;;;45.14;16.04
23172;BME280;11754;42.664;23.594;2022-09-01T11:53:39;94925.44;;;46.67;15.52
23172;BME280;11754;42.664;23.594;2022-09-01T11:56:17;94914.06;;;48.66;13.73
23172;BME280;11754;42.664;23.594;2022-09-01T11:58:43;94911.63;;;50.23;12.95
23172;BME280;11754;42.664;23.594;2022-09-01T12:03:56;94909.56;;;55.85;7.79
23172;BME280;11754;42.664;23.594;2022-09-01T12:06:27;94897.69;;;58.44;7.43
23172;BME280;11754;42.664;23.594;2022-09-01T12:09:01;94888.75;;;59.12;7.43
23172;BME280;11754;42.664;23.594;2022-09-01T12:11:31;94893.34;;;59.56;7.57
23172;BME280;11754;42.664;23.594;2022-09-01T12:14:00;94887.75;;;61.50;7.21
23172;BME280;11754;42.664;23.594;2022-09-01T12:16:28;94891.38;;;63.05;6.50
23172;BME280;11754;42.664;23.594;2022-09-01T12:18:56;94875.66;;;64.00;5.87
23172;BME280;11754;42.664;23.594;2022-09-01T12:21:26;94890.44;;;64.83;5.26
23172;BME280;11754;42.664;23.594;2022-09-01T12:23:53;94887.25;;;63.53;6.14
23172;BME280;11754;42.664;23.594;2022-09-01T12:26:25;94877.88;;;61.63;7.33
23172;BME280;11754;42.664;23.594;2022-09-01T12:28:51;94874.69;;;58.62;8.33
23172;BME280;11754;42.664;23.594;2022-09-01T12:31:24;94871.66;;;56.97;8.84
23172;BME280;11754;42.664;23.594;2022-09-01T12:33:52;94869.59;;;55.41;9.64
23172;BME280;11754;42.664;23.594;2022-09-01T12:38:46;94866.28;;;51.45;11.93
23172;BME280;11754;42.664;23.594;2022-09-01T12:41:45;94866.63;;;53.41;10.59
23172;BME280;11754;42.664;23.594;2022-09-01T12:44:34;94865.69;;;54.56;10.44
23172;BME280;11754;42.664;23.594;2022-09-01T12:47:09;94862.03;;;54.37;10.31
23172;BME280;11754;42.664;23.594;2022-09-01T12:49:46;94862.31;;;52.57;10.93
23172;BME280;11754;42.664;23.594;2022-09-01T12:57:28;94878.66;;;45.82;15.92
23172;BME280;11754;42.664;23.594;2022-09-01T13:00:31;94887.81;;;44.87;16.87
23172;BME280;11754;42.664;23.594;2022-09-01T13:03:13;94884.31;;;44.11;17.77
23172;BME280;11754;42.664;23.594;2022-09-01T13:05:44;94884.56;;;43.49;17.99
23172;BME280;11754;42.664;23.594;2022-09-01T13:10:37;94890.81;;;42.55;18.39
23172;BME280;11754;42.664;23.594;2022-09-01T13:13:05;94887.88;;;41.18;19.66
23172;BME280;11754;42.664;23.594;2022-09-01T13:15:32;94878.81;;;40.34;20.71
23172;BME280;11754;42.664;23.594;2022-09-01T13:17:58;94877.44;;;40.48;20.55
23172;BME280;11754;42.664;23.594;2022-09-01T13:20:24;94872.00;;;40.55;21.83
23172;BME280;11754;42.664;23.594;2022-09-01T13:22:50;94887.75;;;41.75;21.49
23172;BME280;11754;42.664;23.594;2022-09-01T13:25:18;94881.66;;;43.13;20.57
23172;BME280;11754;42.664;23.594;2022-09-01T13:27:45;94879.53;;;44.16;19.02
23172;BME280;11754;42.664;23.594;2022-09-01T13:30:16;94876.34;;;44.49;18.84
23172;BME280;11754;42.664;23.594;2022-09-01T13:32:44;94878.47;;;45.40;18.35
23172;BME280;11754;42.664;23.594;2022-09-01T13:35:12;94877.19;;;48.24;16.01
23172;BME280;11754;42.664;23.594;2022-09-01T13:37:39;94847.06;;;50.72;14.17
23172;BME280;11754;42.664;23.594;2022-09-01T13:40:05;94865.84;;;51.47;13.37
23172;BME280;11754;42.664;23.594;2022-09-01T13:42:40;94872.38;;;51.14;13.44
23172;BME280;11754;42.664;23.594;2022-09-01T13:45:05;94867.78;;;51.08;13.84
23172;BME280;11754;42.664;23.594;2022-09-01T13:47:31;94877.53;;;49.16;14.95
23172;BME280;11754;42.664;23.594;2022-09-01T13:49:57;94870.84;;;47.04;16.65
23172;BME280;11754;42.664;23.594;2022-09-01T13:52:23;94874.59;;;45.20;17.98
23172;BME280;11754;42.664;23.594;2022-09-01T13:54:48;94882.63;;;43.64;19.34
23172;BME280;11754;42.664;23.594;2022-09-01T13:57:13;94886.59;;;42.20;21.02
23172;BME280;11754;42.664;23.594;2022-09-01T13:59:40;94875.50;;;41.05;21.76
23172;BME280;11754;42.664;23.594;2022-09-01T14:02:06;94883.50;;;39.84;23.09
23172;BME280;11754;42.664;23.594;2022-09-01T14:04:31;94885.03;;;38.81;24.70
23172;BME280;11754;42.664;23.594;2022-09-01T14:06:57;94885.09;;;37.86;25.66
23172;BME280;11754;42.664;23.594;2022-09-01T14:09:24;94890.41;;;37.19;26.65
23172;BME280;11754;42.664;23.594;2022-09-01T14:11:52;94875.09;;;36.41;27.74
23172;BME280;11754;42.664;23.594;2022-09-01T14:14:18;94888.59;;;35.97;28.54
23172;BME280;11754;42.664;23.594;2022-09-01T14:16:44;94879.81;;;35.46;29.34
23172;BME280;11754;42.664;23.594;2022-09-01T14:19:10;94880.13;;;34.90;30.28
23172;BME280;11754;42.664;23.594;2022-09-01T14:21:36;94894.44;;;34.54;30.85
23172;BME280;11754;42.664;23.594;2022-09-01T14:24:03;94879.75;;;34.08;31.58